createdAt,value
2023-03-29T00:00:45.790Z,8.23
2023-03-29T00:03:18.332Z,8.21
2023-03-29T00:06:15.316Z,8.20
2023-03-29T00:08:46.130Z,8.18
2023-03-29T00:11:14.022Z,8.19
2023-03-29T00:13:42.945Z,8.20
2023-03-29T00:16:29.458Z,8.22
2023-03-29T00:18:57.635Z,8.25
2023-03-29T00:21:27.850Z,8.26
2023-03-29T00:24:24.048Z,8.26
2023-03-29T00:26:51.816Z,8.28
2023-03-29T00:29:19.859Z,8.28
2023-03-29T00:31:53.877Z,8.28
2023-03-29T00:34:22.376Z,8.29
2023-03-29T00:36:51.017Z,8.28
2023-03-29T00:39:19.706Z,8.29
2023-03-29T00:42:12.734Z,8.30
2023-03-29T00:45:00.268Z,8.31
2023-03-29T00:47:51.925Z,8.33
2023-03-29T00:50:22.279Z,8.35
2023-03-29T00:52:53.814Z,8.37
2023-03-29T00:55:22.999Z,8.39
2023-03-29T00:58:00.910Z,8.40
2023-03-29T01:00:31.946Z,8.41
2023-03-29T01:03:01.768Z,8.42
2023-03-29T01:08:38.300Z,8.40
2023-03-29T01:11:08.458Z,8.39
2023-03-29T01:14:02.864Z,8.40
2023-03-29T01:16:36.252Z,8.40
2023-03-29T01:19:05.613Z,8.41
2023-03-29T01:21:58.769Z,8.41
2023-03-29T01:24:32.795Z,8.42
2023-03-29T01:27:06.583Z,8.44
2023-03-29T01:30:00.344Z,8.48
2023-03-29T01:32:35.368Z,8.51
2023-03-29T01:35:03.314Z,8.54
2023-03-29T01:38:03.222Z,8.56
2023-03-29T01:40:32.602Z,8.59
2023-03-29T01:43:01.318Z,8.61
2023-03-29T01:45:58.737Z,8.62
2023-03-29T01:48:29.567Z,8.63
2023-03-29T01:51:09.787Z,8.62
2023-03-29T01:54:05.573Z,8.60
2023-03-29T01:56:37.042Z,8.56
2023-03-29T01:59:07.911Z,8.53
2023-03-29T02:01:49.453Z,8.48
2023-03-29T02:04:21.158Z,8.44
2023-03-29T02:06:54.310Z,8.40
2023-03-29T02:09:23.659Z,8.36
2023-03-29T02:12:16.753Z,8.32
2023-03-29T02:14:46.068Z,8.29
2023-03-29T02:17:29.997Z,8.25
2023-03-29T02:20:23.915Z,8.25
2023-03-29T02:23:04.932Z,8.25
2023-03-29T02:29:12.007Z,8.29
2023-03-29T02:31:45.304Z,8.32
2023-03-29T02:34:21.289Z,8.33
2023-03-29T02:36:54.655Z,8.35
2023-03-29T02:39:32.328Z,8.36
2023-03-29T02:42:25.784Z,8.37
2023-03-29T02:44:56.116Z,8.39
2023-03-29T02:47:41.860Z,8.40
2023-03-29T02:50:10.127Z,8.41
2023-03-29T02:53:00.573Z,8.43
2023-03-29T02:58:28.878Z,8.46
2023-03-29T03:00:59.044Z,8.48
2023-03-29T03:03:27.888Z,8.48
2023-03-29T03:06:01.740Z,8.49
2023-03-29T03:08:30.051Z,8.50
2023-03-29T03:10:59.940Z,8.51
2023-03-29T03:17:04.343Z,8.51
2023-03-29T03:19:33.456Z,8.51
2023-03-29T03:22:02.494Z,8.52
2023-03-29T03:24:32.686Z,8.53
2023-03-29T03:27:02.732Z,8.53
2023-03-29T03:29:34.437Z,8.54
2023-03-29T03:32:04.462Z,8.55
2023-03-29T03:34:34.844Z,8.55
2023-03-29T03:37:30.339Z,8.56
2023-03-29T03:39:58.700Z,8.56
2023-03-29T03:42:31.140Z,8.56
2023-03-29T03:44:59.314Z,8.56
2023-03-29T03:47:27.562Z,8.57
2023-03-29T03:49:56.483Z,8.57
2023-03-29T03:52:25.381Z,8.57
2023-03-29T03:54:53.510Z,8.57
2023-03-29T03:57:21.758Z,8.58
2023-03-29T03:59:53.107Z,8.58
2023-03-29T04:02:22.344Z,8.57
2023-03-29T04:04:50.424Z,8.56
2023-03-29T04:07:18.377Z,8.55
2023-03-29T04:09:46.394Z,8.54
2023-03-29T04:12:14.343Z,8.53
2023-03-29T04:15:07.602Z,8.51
2023-03-29T04:17:36.515Z,8.49
2023-03-29T04:20:18.992Z,8.45
2023-03-29T04:22:47.334Z,8.42
2023-03-29T04:25:15.816Z,8.41
2023-03-29T04:28:26.005Z,8.38
2023-03-29T04:30:56.641Z,8.36
2023-03-29T04:33:25.449Z,8.34
2023-03-29T04:35:55.434Z,8.34
2023-03-29T04:38:24.662Z,8.33
2023-03-29T04:40:52.628Z,8.33
2023-03-29T04:43:37.850Z,8.32
2023-03-29T04:46:33.543Z,8.32
2023-03-29T04:49:29.835Z,8.32
2023-03-29T04:52:00.998Z,8.33
2023-03-29T04:54:29.714Z,8.35
2023-03-29T04:56:57.862Z,8.37
2023-03-29T04:59:26.034Z,8.38
2023-03-29T05:01:54.927Z,8.39
2023-03-29T05:04:23.266Z,8.40
2023-03-29T05:06:51.573Z,8.40
2023-03-29T05:09:19.714Z,8.39
2023-03-29T05:12:12.232Z,8.38
2023-03-29T05:14:40.265Z,8.35
2023-03-29T05:17:08.215Z,8.32
2023-03-29T05:19:40.897Z,8.30
2023-03-29T05:22:21.983Z,8.29
2023-03-29T05:24:51.617Z,8.29
2023-03-29T05:27:19.712Z,8.28
2023-03-29T05:30:13.920Z,8.28
2023-03-29T05:32:42.426Z,8.27
2023-03-29T05:35:12.118Z,8.27
2023-03-29T05:37:43.846Z,8.25
2023-03-29T05:40:13.288Z,8.24
2023-03-29T05:42:41.979Z,8.23
2023-03-29T05:45:11.627Z,8.23
2023-03-29T05:48:04.319Z,8.23
2023-03-29T05:50:32.463Z,8.24
2023-03-29T05:53:00.380Z,8.26
2023-03-29T05:55:49.608Z,8.27
2023-03-29T05:58:19.221Z,8.29
2023-03-29T06:00:49.751Z,8.31
2023-03-29T06:03:21.102Z,8.32
2023-03-29T06:05:59.239Z,8.35
2023-03-29T06:08:28.047Z,8.37
2023-03-29T06:11:05.432Z,8.41
2023-03-29T06:13:35.096Z,8.43
2023-03-29T06:16:05.914Z,8.48
2023-03-29T06:18:34.357Z,8.51
2023-03-29T06:21:03.124Z,8.59
2023-03-29T06:23:35.923Z,8.70
2023-03-29T06:26:07.661Z,8.80
2023-03-29T06:28:35.942Z,8.83
2023-03-29T06:31:05.283Z,8.88
2023-03-29T06:33:34.641Z,8.93
2023-03-29T06:36:02.600Z,8.99
2023-03-29T06:38:31.164Z,9.28
2023-03-29T06:41:04.041Z,10.20
2023-03-29T06:43:41.546Z,10.68
2023-03-29T06:46:12.509Z,10.65
2023-03-29T06:48:41.681Z,11.15
2023-03-29T06:51:09.838Z,12.00
2023-03-29T06:53:50.045Z,12.39
2023-03-29T06:56:18.070Z,12.43
2023-03-29T06:58:47.248Z,12.67
2023-03-29T07:01:15.428Z,13.14
2023-03-29T07:03:47.759Z,13.16
2023-03-29T07:06:18.079Z,13.06
2023-03-29T07:08:52.144Z,12.79
2023-03-29T07:11:20.695Z,12.54
2023-03-29T07:13:49.536Z,12.32
2023-03-29T07:16:17.595Z,12.14
2023-03-29T07:18:48.099Z,11.97
2023-03-29T07:21:16.412Z,11.90
2023-03-29T07:23:44.420Z,11.86
2023-03-29T07:26:12.569Z,11.83
2023-03-29T07:28:40.500Z,11.79
2023-03-29T07:31:11.055Z,11.74
2023-03-29T07:33:46.580Z,11.67
2023-03-29T07:36:18.687Z,11.58
2023-03-29T07:38:46.767Z,11.52
2023-03-29T07:41:14.684Z,11.43
2023-03-29T07:43:43.525Z,11.34
2023-03-29T07:46:11.905Z,11.27
2023-03-29T07:48:40.044Z,11.27
2023-03-29T07:51:10.966Z,11.30
2023-03-29T07:53:39.099Z,11.35
2023-03-29T07:56:07.145Z,11.49
2023-03-29T07:58:35.281Z,11.69
2023-03-29T08:01:04.237Z,11.88
2023-03-29T08:03:33.522Z,12.10
2023-03-29T08:06:03.571Z,12.30
2023-03-29T08:08:32.117Z,12.46
2023-03-29T08:11:00.382Z,12.53
2023-03-29T08:13:31.763Z,12.56
2023-03-29T08:16:14.349Z,12.52
2023-03-29T08:18:43.048Z,12.47
2023-03-29T08:21:11.721Z,12.44
2023-03-29T08:23:49.309Z,12.42
2023-03-29T08:26:20.510Z,12.34
2023-03-29T08:28:48.863Z,12.24
2023-03-29T08:31:19.848Z,12.13
2023-03-29T08:33:47.832Z,12.02
2023-03-29T08:36:16.207Z,11.99
2023-03-29T08:38:44.464Z,12.00
2023-03-29T08:41:29.302Z,12.01
2023-03-29T08:44:08.053Z,12.05
2023-03-29T08:46:40.865Z,12.04
2023-03-29T08:49:13.847Z,12.02
2023-03-29T08:51:46.569Z,11.98
2023-03-29T08:54:18.745Z,11.98
2023-03-29T08:56:48.747Z,11.95
2023-03-29T08:59:31.410Z,11.93
2023-03-29T09:02:00.483Z,11.91
2023-03-29T09:04:30.572Z,11.90
2023-03-29T09:06:59.505Z,11.87
2023-03-29T09:13:03.578Z,11.81
2023-03-29T09:15:39.781Z,11.79
2023-03-29T09:18:11.469Z,11.81
2023-03-29T09:20:54.101Z,11.84
2023-03-29T09:23:57.073Z,11.87
2023-03-29T09:26:44.947Z,11.91
2023-03-29T09:29:31.895Z,11.96
2023-03-29T09:32:02.482Z,11.99
2023-03-29T09:34:53.540Z,12.00
2023-03-29T09:37:25.219Z,11.99
2023-03-29T09:39:53.394Z,12.00
2023-03-29T09:42:22.040Z,12.01
2023-03-29T09:44:55.568Z,11.99
2023-03-29T09:47:30.826Z,11.98
2023-03-29T09:50:31.009Z,11.96
2023-03-29T09:53:00.224Z,11.96
2023-03-29T09:56:03.034Z,11.95
2023-03-29T09:58:26.535Z,11.95
2023-03-29T10:00:59.310Z,11.99
2023-03-29T10:06:12.582Z,12.02
2023-03-29T10:08:55.138Z,12.01
2023-03-29T10:14:40.897Z,12.00
2023-03-29T10:17:54.971Z,12.00
2023-03-29T10:20:24.653Z,11.97
2023-03-29T10:22:56.781Z,11.96
2023-03-29T10:25:26.691Z,11.97
2023-03-29T10:28:05.535Z,11.99
2023-03-29T10:30:58.618Z,12.03
2023-03-29T10:33:51.684Z,12.03
2023-03-29T10:36:27.387Z,12.03
2023-03-29T10:39:05.989Z,12.06
2023-03-29T10:41:35.897Z,12.11
2023-03-29T10:44:05.700Z,12.13
2023-03-29T10:46:42.428Z,12.17
2023-03-29T10:49:18.154Z,12.26
2023-03-29T10:51:47.135Z,12.39
2023-03-29T10:54:17.502Z,12.57
2023-03-29T10:56:49.799Z,12.77
2023-03-29T10:59:29.970Z,12.96
2023-03-29T11:02:31.227Z,13.15
2023-03-29T11:05:25.651Z,13.24
2023-03-29T11:07:56.973Z,13.24
2023-03-29T11:10:30.403Z,13.20
2023-03-29T11:13:01.357Z,13.14
2023-03-29T11:15:53.682Z,13.13
2023-03-29T11:18:40.534Z,13.14
2023-03-29T11:21:13.778Z,13.10
2023-03-29T11:23:55.169Z,13.11
2023-03-29T11:26:33.869Z,13.12
2023-03-29T11:29:04.552Z,13.11
2023-03-29T11:32:18.376Z,13.15
2023-03-29T11:34:54.430Z,13.18
2023-03-29T11:37:26.833Z,13.23
2023-03-29T11:40:11.118Z,13.33
2023-03-29T11:42:43.773Z,13.42
2023-03-29T11:45:16.219Z,13.50
2023-03-29T11:47:48.667Z,13.54
2023-03-29T11:50:19.724Z,13.65
2023-03-29T11:53:01.601Z,13.78
2023-03-29T11:55:33.241Z,13.99
2023-03-29T11:58:01.275Z,14.17
2023-03-29T12:00:48.912Z,14.28
2023-03-29T12:03:32.595Z,14.32
2023-03-29T12:06:12.258Z,14.27
2023-03-29T12:08:45.121Z,14.29
2023-03-29T12:11:20.776Z,14.31
2023-03-29T12:14:07.384Z,14.26
2023-03-29T12:16:47.143Z,14.19
2023-03-29T12:19:22.914Z,14.15
2023-03-29T12:21:54.241Z,14.17
2023-03-29T12:24:22.640Z,14.25
2023-03-29T12:26:58.417Z,14.27
2023-03-29T12:29:36.307Z,14.30
2023-03-29T12:32:31.510Z,14.38
2023-03-29T12:35:19.564Z,14.45
2023-03-29T12:38:01.349Z,14.48
2023-03-29T12:40:36.527Z,14.52
2023-03-29T12:43:07.239Z,14.56
2023-03-29T12:45:39.890Z,14.59
2023-03-29T12:48:13.941Z,14.62
2023-03-29T12:50:57.081Z,14.67
2023-03-29T12:54:03.521Z,14.71
2023-03-29T12:56:54.562Z,14.65
2023-03-29T12:59:23.274Z,14.60
2023-03-29T13:02:04.417Z,14.58
2023-03-29T13:05:01.388Z,14.60
2023-03-29T13:07:50.099Z,14.57
2023-03-29T13:11:00.945Z,14.54
2023-03-29T13:14:03.903Z,14.50
2023-03-29T13:16:40.118Z,14.49
2023-03-29T13:19:34.867Z,14.49
2023-03-29T13:22:11.365Z,14.57
2023-03-29T13:25:02.768Z,14.76
2023-03-29T13:27:50.328Z,14.91
2023-03-29T13:30:24.212Z,15.08
2023-03-29T13:33:08.740Z,15.14
2023-03-29T13:35:43.214Z,15.13
2023-03-29T13:38:24.324Z,15.06
2023-03-29T13:40:58.163Z,15.01
2023-03-29T13:43:48.465Z,14.98
2023-03-29T13:46:42.224Z,14.96
2023-03-29T13:52:40.401Z,14.83
2023-03-29T13:55:21.932Z,14.85
2023-03-29T13:58:01.155Z,14.79
2023-03-29T14:00:37.555Z,14.76
2023-03-29T14:03:11.812Z,14.71
2023-03-29T14:06:22.511Z,14.66
2023-03-29T14:08:48.837Z,14.60
2023-03-29T14:14:40.530Z,14.44
2023-03-29T14:17:20.024Z,14.41
2023-03-29T14:20:17.793Z,14.38
2023-03-29T14:26:24.475Z,14.41
2023-03-29T14:28:57.455Z,14.46
2023-03-29T14:32:11.793Z,14.48
2023-03-29T14:34:52.196Z,14.46
2023-03-29T14:37:23.537Z,14.39
2023-03-29T14:40:16.825Z,14.32
2023-03-29T14:42:52.346Z,14.24
2023-03-29T14:48:13.104Z,14.13
2023-03-29T14:51:15.105Z,14.11
2023-03-29T14:54:02.660Z,14.06
2023-03-29T14:56:35.861Z,14.02
2023-03-29T14:59:05.457Z,13.99
2023-03-29T15:01:45.763Z,14.01
2023-03-29T15:04:15.011Z,14.05
2023-03-29T15:07:02.442Z,14.13
2023-03-29T15:13:52.679Z,14.20
2023-03-29T15:16:31.077Z,14.27
2023-03-29T15:19:04.781Z,14.40
2023-03-29T15:21:39.976Z,14.54
2023-03-29T15:24:22.422Z,14.74
2023-03-29T15:29:07.951Z,14.90
2023-03-29T15:31:00.845Z,15.01
2023-03-29T15:34:16.848Z,14.91
2023-03-29T15:37:05.350Z,14.80
2023-03-29T15:43:44.728Z,14.80
2023-03-29T15:46:14.358Z,14.88
2023-03-29T15:48:42.860Z,14.96
2023-03-29T15:51:18.683Z,15.01
2023-03-29T15:53:56.248Z,14.99
2023-03-29T15:56:27.452Z,14.94
2023-03-29T15:58:56.026Z,14.86
2023-03-29T16:02:01.046Z,14.79
2023-03-29T16:04:29.794Z,14.74
2023-03-29T16:06:59.213Z,14.73
2023-03-29T16:12:44.452Z,14.75
2023-03-29T16:15:49.946Z,14.74
2023-03-29T16:18:32.003Z,14.55
2023-03-29T16:22:49.849Z,14.35
2023-03-29T16:30:06.070Z,14.06
2023-03-29T16:35:10.776Z,14.02
2023-03-29T16:39:16.989Z,13.89
2023-03-29T16:42:21.003Z,13.82
2023-03-29T16:52:08.145Z,13.57
2023-03-29T16:55:06.452Z,13.54
2023-03-29T17:00:48.402Z,13.60
2023-03-29T17:06:38.569Z,13.67
2023-03-29T17:17:05.977Z,13.64
2023-03-29T17:20:02.629Z,13.63
2023-03-29T17:38:15.368Z,13.38
2023-03-29T18:16:05.487Z,13.02
2023-03-29T20:48:03.357Z,12.17
2023-03-29T23:20:43.611Z,12.08
